Safire — MBIR3 — position and weather

sailwx.info

Track history (hours):
 
Tides and Currents Weather Stations Pressure Air Temp Water Temp Dewpoint Dewpoint Depression Visibility Wind Speed Wind Dir Waves Ship Positions

Safire

Last reported at 2017-Nov-01 01:57 UTC. Time now 2017-Nov-24 02:18 UTC.
Position N 27°29' W 013°51'.
Warning: this ship's position is 23 days out of date.

Length 15 m.

Type: Sailing vessel. MMSI: 232009322.

Date/timePositionNaut miles runAvg speedWind from/ knotsBaromVisibWave heightAir tempDewpointWater temp
2017-Nov-01 01:57N 27°29' W 013°51'4 8.0
2017-Nov-01 01:27N 27°33' W 013°50'5 7.5
2017-Nov-01 00:44N 27°38' W 013°50'2 7.4
2017-Nov-01 00:26N 27°41' W 013°49'3 7.0
2017-Oct-31 23:56N 27°44' W 013°49'4 7.2
2017-Oct-31 23:25N 27°48' W 013°49'4 7.0
2017-Oct-31 22:54N 27°52' W 013°48'4 7.1
2017-Oct-31 22:23N 27°55' W 013°48'4 6.6
2017-Oct-31 21:43N 27°60' W 013°48'1 6.4
2017-Oct-31 21:30N 28°01' W 013°48'59 2.0
2017-Oct-30 16:47N 28°58' W 013°32'0 1.4
2017-Oct-30 16:29N 28°58' W 013°32'0 0.4
2017-Oct-30 15:57N 28°58' W 013°32'0 0.3
2017-Oct-30 15:12N 28°58' W 013°32'0 0.0
2017-Oct-30 14:51N 28°58' W 013°32'0 0.0
2017-Oct-30 05:06N 28°58' W 013°32'0 0.0
2017-Oct-30 04:57N 28°58' W 013°32'0 0.0
2017-Oct-30 04:30N 28°58' W 013°32'0 0.0
2017-Oct-30 03:51N 28°58' W 013°32'0 0.0
2017-Oct-30 03:18N 28°58' W 013°32'0 0.0
2017-Oct-30 02:48N 28°58' W 013°32'0 0.0
2017-Oct-30 02:03N 28°58' W 013°32'0 0.1
2017-Oct-30 01:54N 28°58' W 013°32'0 0.0
2017-Oct-30 00:57N 28°58' W 013°32'0 0.0
2017-Oct-30 00:24N 28°58' W 013°32'0 0.0
2017-Oct-29 23:42N 28°58' W 013°32'0 0.0
2017-Oct-29 22:54N 28°58' W 013°32'0 0.0
2017-Oct-29 22:30N 28°58' W 013°32'0 0.0
2017-Oct-29 20:09N 28°58' W 013°32'0 0.0
2017-Oct-29 19:48N 28°58' W 013°32'0 0.0
2017-Oct-29 19:30N 28°58' W 013°32'0 0.0
2017-Oct-29 18:18N 28°58' W 013°32'0 0.0
2017-Oct-29 18:00N 28°58' W 013°32'0 0.0
2017-Oct-29 17:30N 28°58' W 013°32'0 0.0
2017-Oct-29 08:38N 28°58' W 013°32'0 0.0
2017-Oct-29 08:23N 28°58' W 013°32'0 0.0
2017-Oct-29 07:50N 28°58' W 013°32'0 0.0
2017-Oct-29 07:29N 28°58' W 013°32'0 0.0
2017-Oct-29 06:53N 28°58' W 013°32'0 0.0
2017-Oct-29 06:20N 28°58' W 013°32'0 0.0
2017-Oct-29 05:41N 28°58' W 013°32'0 0.0
2017-Oct-29 05:29N 28°58' W 013°32'0 0.0
2017-Oct-29 04:58N 28°58' W 013°32'0 0.0
2017-Oct-29 04:29N 28°58' W 013°32'0 0.0
2017-Oct-29 03:45N 28°58' W 013°32'0 0.0
2017-Oct-28 18:52N 28°58' W 013°32'0 0.0
2017-Oct-28 18:28N 28°58' W 013°32'0 0.0
2017-Oct-28 08:32N 28°58' W 013°32'0 0.0
2017-Oct-28 08:08N 28°58' W 013°32'0 0.0
2017-Oct-28 07:59N 28°58' W 013°32'0 0.0
2017-Oct-28 07:23N 28°58' W 013°32'0 0.0
2017-Oct-28 06:42N 28°58' W 013°32'0 0.0
2017-Oct-28 06:09N 28°58' W 013°32'0 0.0
2017-Oct-28 06:00N 28°58' W 013°32'0 0.0
2017-Oct-28 05:21N 28°58' W 013°32'0 0.0
2017-Oct-28 05:00N 28°58' W 013°32'0 0.0
2017-Oct-28 04:30N 28°58' W 013°32'0 0.0
2017-Oct-28 03:51N 28°58' W 013°32'0 0.0
2017-Oct-28 03:30N 28°58' W 013°32'0 0.0
2017-Oct-28 03:00N 28°58' W 013°32'0 0.0
2017-Oct-27 20:27N 28°58' W 013°32'0 0.0
2017-Oct-27 20:00N 28°58' W 013°32'0 0.0
2017-Oct-27 19:09N 28°58' W 013°32'0 0.0
2017-Oct-27 18:51N 28°58' W 013°32'0 0.0
2017-Oct-27 18:24N 28°58' W 013°32'0 0.0
2017-Oct-27 17:45N 28°58' W 013°32'0 0.0
2017-Oct-27 17:30N 28°58' W 013°32'0 0.0
2017-Oct-27 17:00N 28°58' W 013°32'0 0.0
2017-Oct-27 16:30N 28°58' W 013°32'0 0.0
2017-Oct-27 15:57N 28°58' W 013°32'0 0.0
2017-Oct-27 15:27N 28°58' W 013°32'0 0.0
2017-Oct-27 13:30N 28°58' W 013°32'0 0.3
2017-Oct-27 12:47N 28°58' W 013°32'0 0.0
2017-Oct-27 12:29N 28°58' W 013°32'0 0.0
2017-Oct-27 11:56N 28°58' W 013°32'0 0.0
2017-Oct-27 11:23N 28°58' W 013°32'0 0.0
2017-Oct-27 02:11N 28°58' W 013°32'0 0.0
2017-Oct-27 01:59N 28°58' W 013°32'0 0.0
2017-Oct-26 16:52N 28°58' W 013°32'0 0.0
2017-Oct-26 15:09N 28°58' W 013°32'0 0.0
2017-Oct-26 14:54N 28°58' W 013°32'0 0.0
2017-Oct-26 11:53N 28°58' W 013°32'0 0.0
2017-Oct-26 11:17N 28°58' W 013°32'0 0.0
2017-Oct-26 10:47N 28°58' W 013°32'0 0.0
2017-Oct-26 10:14N 28°58' W 013°32'0 0.0
2017-Oct-26 09:41N 28°58' W 013°32'0 0.0
2017-Oct-26 09:30N 28°58' W 013°32'0 0.0
2017-Oct-26 08:51N 28°58' W 013°32'0 0.0
2017-Oct-26 08:29N 28°58' W 013°32'0 0.0
2017-Oct-26 07:56N 28°58' W 013°32'0 0.0
2017-Oct-26 07:20N 28°58' W 013°32'0 0.0
2017-Oct-26 06:44N 28°58' W 013°32'0 0.0
2017-Oct-26 06:11N 28°58' W 013°32'0 0.0
2017-Oct-26 05:41N 28°58' W 013°32'0 0.0
2017-Oct-26 05:26N 28°58' W 013°32'0 0.0
2017-Oct-26 05:00N 28°58' W 013°32'0 0.0
2017-Oct-26 04:26N 28°58' W 013°32'0 0.0
2017-Oct-26 03:54N 28°58' W 013°32'0 0.0
2017-Oct-26 03:30N 28°58' W 013°32'0 0.0
2017-Oct-25 19:20N 28°58' W 013°32'0 0.0
2017-Oct-25 18:50N 28°58' W 013°32'0 0.0
2017-Oct-25 15:40N 28°58' W 013°32'0 0.0
2017-Oct-25 14:12N 28°58' W 013°32'0 0.0
2017-Oct-25 12:30N 28°58' W 013°32'0 0.0
2017-Oct-25 12:00N 28°58' W 013°32'0 0.0
2017-Oct-25 11:31N 28°58' W 013°32'0 0.0
2017-Oct-25 10:58N 28°58' W 013°32'0 0.0
2017-Oct-25 10:22N 28°58' W 013°32'0 0.0
2017-Oct-25 09:52N 28°58' W 013°32'0 0.0
2017-Oct-25 09:28N 28°58' W 013°32'0 0.0
2017-Oct-25 08:56N 28°58' W 013°32'0 0.0
2017-Oct-25 08:26N 28°58' W 013°32'0 0.0
2017-Oct-25 07:59N 28°58' W 013°32'0 0.0
2017-Oct-25 07:26N 28°58' W 013°32'0 0.0
2017-Oct-25 06:56N 28°58' W 013°32'0 0.0
2017-Oct-25 06:28N 28°58' W 013°32'0 0.0
2017-Oct-25 05:58N 28°58' W 013°32'0 0.0
2017-Oct-25 05:28N 28°58' W 013°32'0 0.0
2017-Oct-25 04:43N 28°58' W 013°32'0 0.0
2017-Oct-25 04:30N 28°58' W 013°32'0 0.0
2017-Oct-25 01:18N 28°58' W 013°32'0 0.0
2017-Oct-25 01:00N 28°58' W 013°32'0 0.0
2017-Oct-25 00:26N 28°58' W 013°32'0 0.0
2017-Oct-24 23:59N 28°58' W 013°32'0 0.0
2017-Oct-24 23:14N 28°58' W 013°32'0 0.0
2017-Oct-24 22:44N 28°58' W 013°32'0 0.0
2017-Oct-24 22:29N 28°58' W 013°32'0 0.0
2017-Oct-24 21:59N 28°58' W 013°32'0 0.0
2017-Oct-24 21:28N 28°58' W 013°32'0 0.0
2017-Oct-24 20:58N 28°58' W 013°32'0 0.0
2017-Oct-24 20:16N 28°58' W 013°32'0 0.0
2017-Oct-24 19:58N 28°58' W 013°32'0 0.0
2017-Oct-24 19:25N 28°58' W 013°32'0 0.0
2017-Oct-24 18:52N 28°58' W 013°32'0 0.0
2017-Oct-24 18:28N 28°58' W 013°32'0 0.0
2017-Oct-24 17:58N 28°58' W 013°32'0 0.0
2017-Oct-24 17:26N 28°58' W 013°32'0 0.0
2017-Oct-24 16:55N 28°58' W 013°32'0 0.0
2017-Oct-24 16:30N 28°58' W 013°32'0 0.0
2017-Oct-24 15:48N 28°58' W 013°32'0 0.0
2017-Oct-24 15:28N 28°58' W 013°32'0 0.0
2017-Oct-24 15:00N 28°58' W 013°32'0 0.0
2017-Oct-24 14:25N 28°58' W 013°32'0 0.0
2017-Oct-24 13:58N 28°58' W 013°32'0 0.0
2017-Oct-24 13:26N 28°58' W 013°32'0 0.0
2017-Oct-24 12:59N 28°58' W 013°32'0 0.0
2017-Oct-24 12:29N 28°58' W 013°32'0 0.0
2017-Oct-24 11:50N 28°58' W 013°32'0 0.0
2017-Oct-24 11:20N 28°58' W 013°32'0 0.0
2017-Oct-24 10:58N 28°58' W 013°32'0 0.0
2017-Oct-24 10:22N 28°58' W 013°32'0 0.0
2017-Oct-24 09:52N 28°58' W 013°32'0 0.0
2017-Oct-24 09:28N 28°58' W 013°32'0 0.0
2017-Oct-24 08:52N 28°58' W 013°32'0 0.0
2017-Oct-24 06:22N 28°58' W 013°32'0 0.0
2017-Oct-24 05:58N 28°58' W 013°32'0 0.0
2017-Oct-24 05:28N 28°58' W 013°32'0 0.0
2017-Oct-24 04:46N 28°58' W 013°32'0 0.0
2017-Oct-24 04:28N 28°58' W 013°32'0 0.0
2017-Oct-24 03:58N 28°58' W 013°32'0 0.0
2017-Oct-24 03:22N 28°58' W 013°32'0 0.0
2017-Oct-24 02:52N 28°58' W 013°32'0 0.0
2017-Oct-24 02:16N 28°58' W 013°32'0 0.0
2017-Oct-23 11:58N 28°58' W 013°32'0 0.0
2017-Oct-23 11:28N 28°58' W 013°32'0 0.0
2017-Oct-23 10:58N 28°58' W 013°32'0 0.0
2017-Oct-23 10:16N 28°58' W 013°32'0 0.0
2017-Oct-23 09:58N 28°58' W 013°32'0 0.0
2017-Oct-23 09:28N 28°58' W 013°32'0 0.0
2017-Oct-23 08:51N 28°58' W 013°32'0 0.0
2017-Oct-23 08:03N 28°58' W 013°32'0 0.0
2017-Oct-23 07:57N 28°58' W 013°32'0 0.0
2017-Oct-23 07:29N 28°58' W 013°32'0 0.0
2017-Oct-23 06:59N 28°58' W 013°32'0 0.0
2017-Oct-23 06:11N 28°58' W 013°32'0 0.0
2017-Oct-23 05:35N 28°58' W 013°32'0 0.0
2017-Oct-23 05:29N 28°58' W 013°32'0 0.0
2017-Oct-23 04:47N 28°58' W 013°32'0 0.0
2017-Oct-23 04:23N 28°58' W 013°32'0 0.0
2017-Oct-23 03:53N 28°58' W 013°32'0 0.0
2017-Oct-23 03:29N 28°58' W 013°32'0 0.0
2017-Oct-23 02:59N 28°58' W 013°32'0 0.0
2017-Oct-23 02:26N 28°58' W 013°32'0 0.0
2017-Oct-23 01:56N 28°58' W 013°32'0 0.0
2017-Oct-23 01:11N 28°58' W 013°32'0 0.0
2017-Oct-23 00:59N 28°58' W 013°32'0 0.0
2017-Oct-22 23:35N 28°58' W 013°32'0 0.0
2017-Oct-22 23:23N 28°58' W 013°32'0 0.0
2017-Oct-22 22:59N 28°58' W 013°32'0 0.0
2017-Oct-22 22:29N 28°58' W 013°32'0 0.0
2017-Oct-22 21:53N 28°58' W 013°32'0 0.0
2017-Oct-22 21:23N 28°58' W 013°32'0 0.0
2017-Oct-22 20:59N 28°58' W 013°32'0 0.0
2017-Oct-22 20:26N 28°58' W 013°32'0 0.0
2017-Oct-22 19:53N 28°58' W 013°32'0 0.0
2017-Oct-22 19:29N 28°58' W 013°32'0 0.0
2017-Oct-22 18:53N 28°58' W 013°32'0 0.0
2017-Oct-22 18:29N 28°58' W 013°32'0 0.0
2017-Oct-22 17:59N 28°58' W 013°32'0 0.0
2017-Oct-22 17:22N 28°58' W 013°32'0 0.0
2017-Oct-22 16:58N 28°58' W 013°32'0 0.0
2017-Oct-22 16:22N 28°58' W 013°32'0 0.0
2017-Oct-22 10:58N 28°58' W 013°32'0 0.0
2017-Oct-22 10:28N 28°58' W 013°32'0 0.0
2017-Oct-22 09:52N 28°58' W 013°32'0 0.0
2017-Oct-22 09:28N 28°58' W 013°32'0 0.0
2017-Oct-22 08:52N 28°58' W 013°32'0 0.0
2017-Oct-22 08:22N 28°58' W 013°32'0 0.0
2017-Oct-22 06:52N 28°58' W 013°32'0 0.0
2017-Oct-22 06:28N 28°58' W 013°32'0 0.0
2017-Oct-22 05:52N 28°58' W 013°32'0 0.0
2017-Oct-22 05:22N 28°58' W 013°32'0 0.0
2017-Oct-22 04:58N 28°58' W 013°32'0 0.0
2017-Oct-22 04:28N 28°58' W 013°32'0 0.0
2017-Oct-22 03:52N 28°58' W 013°32'0 0.0
2017-Oct-22 03:28N 28°58' W 013°32'0 0.0
2017-Oct-22 02:58N 28°58' W 013°32'0 0.0
2017-Oct-22 02:16N 28°58' W 013°32'0 0.0
2017-Oct-22 01:58N 28°58' W 013°32'  
Track history (hours):
 
Tides and Currents Weather Stations Pressure Air Temp Water Temp Dewpoint Dewpoint Depression Visibility Wind Speed Wind Dir Waves Ship Positions

Safire

Last reported at 2017-Nov-01 01:57 UTC. Time now 2017-Nov-24 02:18 UTC.
Position N 27°29' W 013°51'.
Warning: this ship's position is 23 days out of date.

Length 15 m.

Type: Sailing vessel. MMSI: 232009322.

Date/timePositionNaut miles runAvg speedWind from/ knotsBaromVisibWave heightAir tempDewpointWater temp
2017-Nov-01 01:57N 27°29' W 013°51'4 8.0
2017-Nov-01 01:27N 27°33' W 013°50'5 7.5
2017-Nov-01 00:44N 27°38' W 013°50'2 7.4
2017-Nov-01 00:26N 27°41' W 013°49'3 7.0
2017-Oct-31 23:56N 27°44' W 013°49'4 7.2
2017-Oct-31 23:25N 27°48' W 013°49'4 7.0
2017-Oct-31 22:54N 27°52' W 013°48'4 7.1
2017-Oct-31 22:23N 27°55' W 013°48'4 6.6
2017-Oct-31 21:43N 27°60' W 013°48'1 6.4
2017-Oct-31 21:30N 28°01' W 013°48'59 2.0
2017-Oct-30 16:47N 28°58' W 013°32'0 1.4
2017-Oct-30 16:29N 28°58' W 013°32'0 0.4
2017-Oct-30 15:57N 28°58' W 013°32'0 0.3
2017-Oct-30 15:12N 28°58' W 013°32'0 0.0
2017-Oct-30 14:51N 28°58' W 013°32'0 0.0
2017-Oct-30 05:06N 28°58' W 013°32'0 0.0
2017-Oct-30 04:57N 28°58' W 013°32'0 0.0
2017-Oct-30 04:30N 28°58' W 013°32'0 0.0
2017-Oct-30 03:51N 28°58' W 013°32'0 0.0
2017-Oct-30 03:18N 28°58' W 013°32'0 0.0
2017-Oct-30 02:48N 28°58' W 013°32'0 0.0
2017-Oct-30 02:03N 28°58' W 013°32'0 0.1
2017-Oct-30 01:54N 28°58' W 013°32'0 0.0
2017-Oct-30 00:57N 28°58' W 013°32'0 0.0
2017-Oct-30 00:24N 28°58' W 013°32'0 0.0
2017-Oct-29 23:42N 28°58' W 013°32'0 0.0
2017-Oct-29 22:54N 28°58' W 013°32'0 0.0
2017-Oct-29 22:30N 28°58' W 013°32'0 0.0
2017-Oct-29 20:09N 28°58' W 013°32'0 0.0
2017-Oct-29 19:48N 28°58' W 013°32'0 0.0
2017-Oct-29 19:30N 28°58' W 013°32'0 0.0
2017-Oct-29 18:18N 28°58' W 013°32'0 0.0
2017-Oct-29 18:00N 28°58' W 013°32'0 0.0
2017-Oct-29 17:30N 28°58' W 013°32'0 0.0
2017-Oct-29 08:38N 28°58' W 013°32'0 0.0
2017-Oct-29 08:23N 28°58' W 013°32'0 0.0
2017-Oct-29 07:50N 28°58' W 013°32'0 0.0
2017-Oct-29 07:29N 28°58' W 013°32'0 0.0
2017-Oct-29 06:53N 28°58' W 013°32'0 0.0
2017-Oct-29 06:20N 28°58' W 013°32'0 0.0
2017-Oct-29 05:41N 28°58' W 013°32'0 0.0
2017-Oct-29 05:29N 28°58' W 013°32'0 0.0
2017-Oct-29 04:58N 28°58' W 013°32'0 0.0
2017-Oct-29 04:29N 28°58' W 013°32'0 0.0
2017-Oct-29 03:45N 28°58' W 013°32'0 0.0
2017-Oct-28 18:52N 28°58' W 013°32'0 0.0
2017-Oct-28 18:28N 28°58' W 013°32'0 0.0
2017-Oct-28 08:32N 28°58' W 013°32'0 0.0
2017-Oct-28 08:08N 28°58' W 013°32'0 0.0
2017-Oct-28 07:59N 28°58' W 013°32'0 0.0
2017-Oct-28 07:23N 28°58' W 013°32'0 0.0
2017-Oct-28 06:42N 28°58' W 013°32'0 0.0
2017-Oct-28 06:09N 28°58' W 013°32'0 0.0
2017-Oct-28 06:00N 28°58' W 013°32'0 0.0
2017-Oct-28 05:21N 28°58' W 013°32'0 0.0
2017-Oct-28 05:00N 28°58' W 013°32'0 0.0
2017-Oct-28 04:30N 28°58' W 013°32'0 0.0
2017-Oct-28 03:51N 28°58' W 013°32'0 0.0
2017-Oct-28 03:30N 28°58' W 013°32'0 0.0
2017-Oct-28 03:00N 28°58' W 013°32'0 0.0
2017-Oct-27 20:27N 28°58' W 013°32'0 0.0
2017-Oct-27 20:00N 28°58' W 013°32'0 0.0
2017-Oct-27 19:09N 28°58' W 013°32'0 0.0
2017-Oct-27 18:51N 28°58' W 013°32'0 0.0
2017-Oct-27 18:24N 28°58' W 013°32'0 0.0
2017-Oct-27 17:45N 28°58' W 013°32'0 0.0
2017-Oct-27 17:30N 28°58' W 013°32'0 0.0
2017-Oct-27 17:00N 28°58' W 013°32'0 0.0
2017-Oct-27 16:30N 28°58' W 013°32'0 0.0
2017-Oct-27 15:57N 28°58' W 013°32'0 0.0
2017-Oct-27 15:27N 28°58' W 013°32'0 0.0
2017-Oct-27 13:30N 28°58' W 013°32'0 0.3
2017-Oct-27 12:47N 28°58' W 013°32'0 0.0
2017-Oct-27 12:29N 28°58' W 013°32'0 0.0
2017-Oct-27 11:56N 28°58' W 013°32'0 0.0
2017-Oct-27 11:23N 28°58' W 013°32'0 0.0
2017-Oct-27 02:11N 28°58' W 013°32'0 0.0
2017-Oct-27 01:59N 28°58' W 013°32'0 0.0
2017-Oct-26 16:52N 28°58' W 013°32'0 0.0
2017-Oct-26 15:09N 28°58' W 013°32'0 0.0
2017-Oct-26 14:54N 28°58' W 013°32'0 0.0
2017-Oct-26 11:53N 28°58' W 013°32'0 0.0
2017-Oct-26 11:17N 28°58' W 013°32'0 0.0
2017-Oct-26 10:47N 28°58' W 013°32'0 0.0
2017-Oct-26 10:14N 28°58' W 013°32'0 0.0
2017-Oct-26 09:41N 28°58' W 013°32'0 0.0
2017-Oct-26 09:30N 28°58' W 013°32'0 0.0
2017-Oct-26 08:51N 28°58' W 013°32'0 0.0
2017-Oct-26 08:29N 28°58' W 013°32'0 0.0
2017-Oct-26 07:56N 28°58' W 013°32'0 0.0
2017-Oct-26 07:20N 28°58' W 013°32'0 0.0
2017-Oct-26 06:44N 28°58' W 013°32'0 0.0
2017-Oct-26 06:11N 28°58' W 013°32'0 0.0
2017-Oct-26 05:41N 28°58' W 013°32'0 0.0
2017-Oct-26 05:26N 28°58' W 013°32'0 0.0
2017-Oct-26 05:00N 28°58' W 013°32'0 0.0
2017-Oct-26 04:26N 28°58' W 013°32'0 0.0
2017-Oct-26 03:54N 28°58' W 013°32'0 0.0
2017-Oct-26 03:30N 28°58' W 013°32'0 0.0
2017-Oct-25 19:20N 28°58' W 013°32'0 0.0
2017-Oct-25 18:50N 28°58' W 013°32'0 0.0
2017-Oct-25 15:40N 28°58' W 013°32'0 0.0
2017-Oct-25 14:12N 28°58' W 013°32'0 0.0
2017-Oct-25 12:30N 28°58' W 013°32'0 0.0
2017-Oct-25 12:00N 28°58' W 013°32'0 0.0
2017-Oct-25 11:31N 28°58' W 013°32'0 0.0
2017-Oct-25 10:58N 28°58' W 013°32'0 0.0
2017-Oct-25 10:22N 28°58' W 013°32'0 0.0
2017-Oct-25 09:52N 28°58' W 013°32'0 0.0
2017-Oct-25 09:28N 28°58' W 013°32'0 0.0
2017-Oct-25 08:56N 28°58' W 013°32'0 0.0
2017-Oct-25 08:26N 28°58' W 013°32'0 0.0
2017-Oct-25 07:59N 28°58' W 013°32'0 0.0
2017-Oct-25 07:26N 28°58' W 013°32'0 0.0
2017-Oct-25 06:56N 28°58' W 013°32'0 0.0
2017-Oct-25 06:28N 28°58' W 013°32'0 0.0
2017-Oct-25 05:58N 28°58' W 013°32'0 0.0
2017-Oct-25 05:28N 28°58' W 013°32'0 0.0
2017-Oct-25 04:43N 28°58' W 013°32'0 0.0
2017-Oct-25 04:30N 28°58' W 013°32'0 0.0
2017-Oct-25 01:18N 28°58' W 013°32'0 0.0
2017-Oct-25 01:00N 28°58' W 013°32'0 0.0
2017-Oct-25 00:26N 28°58' W 013°32'0 0.0
2017-Oct-24 23:59N 28°58' W 013°32'0 0.0
2017-Oct-24 23:14N 28°58' W 013°32'0 0.0
2017-Oct-24 22:44N 28°58' W 013°32'0 0.0
2017-Oct-24 22:29N 28°58' W 013°32'0 0.0
2017-Oct-24 21:59N 28°58' W 013°32'0 0.0
2017-Oct-24 21:28N 28°58' W 013°32'0 0.0
2017-Oct-24 20:58N 28°58' W 013°32'0 0.0
2017-Oct-24 20:16N 28°58' W 013°32'0 0.0
2017-Oct-24 19:58N 28°58' W 013°32'0 0.0
2017-Oct-24 19:25N 28°58' W 013°32'0 0.0
2017-Oct-24 18:52N 28°58' W 013°32'0 0.0
2017-Oct-24 18:28N 28°58' W 013°32'0 0.0
2017-Oct-24 17:58N 28°58' W 013°32'0 0.0
2017-Oct-24 17:26N 28°58' W 013°32'0 0.0
2017-Oct-24 16:55N 28°58' W 013°32'0 0.0
2017-Oct-24 16:30N 28°58' W 013°32'0 0.0
2017-Oct-24 15:48N 28°58' W 013°32'0 0.0
2017-Oct-24 15:28N 28°58' W 013°32'0 0.0
2017-Oct-24 15:00N 28°58' W 013°32'0 0.0
2017-Oct-24 14:25N 28°58' W 013°32'0 0.0
2017-Oct-24 13:58N 28°58' W 013°32'0 0.0
2017-Oct-24 13:26N 28°58' W 013°32'0 0.0
2017-Oct-24 12:59N 28°58' W 013°32'0 0.0
2017-Oct-24 12:29N 28°58' W 013°32'0 0.0
2017-Oct-24 11:50N 28°58' W 013°32'0 0.0
2017-Oct-24 11:20N 28°58' W 013°32'0 0.0
2017-Oct-24 10:58N 28°58' W 013°32'0 0.0
2017-Oct-24 10:22N 28°58' W 013°32'0 0.0
2017-Oct-24 09:52N 28°58' W 013°32'0 0.0
2017-Oct-24 09:28N 28°58' W 013°32'0 0.0
2017-Oct-24 08:52N 28°58' W 013°32'0 0.0
2017-Oct-24 06:22N 28°58' W 013°32'0 0.0
2017-Oct-24 05:58N 28°58' W 013°32'0 0.0
2017-Oct-24 05:28N 28°58' W 013°32'0 0.0
2017-Oct-24 04:46N 28°58' W 013°32'0 0.0
2017-Oct-24 04:28N 28°58' W 013°32'0 0.0
2017-Oct-24 03:58N 28°58' W 013°32'0 0.0
2017-Oct-24 03:22N 28°58' W 013°32'0 0.0
2017-Oct-24 02:52N 28°58' W 013°32'0 0.0
2017-Oct-24 02:16N 28°58' W 013°32'0 0.0
2017-Oct-23 11:58N 28°58' W 013°32'0 0.0
2017-Oct-23 11:28N 28°58' W 013°32'0 0.0
2017-Oct-23 10:58N 28°58' W 013°32'0 0.0
2017-Oct-23 10:16N 28°58' W 013°32'0 0.0
2017-Oct-23 09:58N 28°58' W 013°32'0 0.0
2017-Oct-23 09:28N 28°58' W 013°32'0 0.0
2017-Oct-23 08:51N 28°58' W 013°32'0 0.0
2017-Oct-23 08:03N 28°58' W 013°32'0 0.0
2017-Oct-23 07:57N 28°58' W 013°32'0 0.0
2017-Oct-23 07:29N 28°58' W 013°32'0 0.0
2017-Oct-23 06:59N 28°58' W 013°32'0 0.0
2017-Oct-23 06:11N 28°58' W 013°32'0 0.0
2017-Oct-23 05:35N 28°58' W 013°32'0 0.0
2017-Oct-23 05:29N 28°58' W 013°32'0 0.0
2017-Oct-23 04:47N 28°58' W 013°32'0 0.0
2017-Oct-23 04:23N 28°58' W 013°32'0 0.0
2017-Oct-23 03:53N 28°58' W 013°32'0 0.0
2017-Oct-23 03:29N 28°58' W 013°32'0 0.0
2017-Oct-23 02:59N 28°58' W 013°32'0 0.0
2017-Oct-23 02:26N 28°58' W 013°32'0 0.0
2017-Oct-23 01:56N 28°58' W 013°32'0 0.0
2017-Oct-23 01:11N 28°58' W 013°32'0 0.0
2017-Oct-23 00:59N 28°58' W 013°32'0 0.0
2017-Oct-22 23:35N 28°58' W 013°32'0 0.0
2017-Oct-22 23:23N 28°58' W 013°32'0 0.0
2017-Oct-22 22:59N 28°58' W 013°32'0 0.0
2017-Oct-22 22:29N 28°58' W 013°32'0 0.0
2017-Oct-22 21:53N 28°58' W 013°32'0 0.0
2017-Oct-22 21:23N 28°58' W 013°32'0 0.0
2017-Oct-22 20:59N 28°58' W 013°32'0 0.0
2017-Oct-22 20:26N 28°58' W 013°32'0 0.0
2017-Oct-22 19:53N 28°58' W 013°32'0 0.0
2017-Oct-22 19:29N 28°58' W 013°32'0 0.0
2017-Oct-22 18:53N 28°58' W 013°32'0 0.0
2017-Oct-22 18:29N 28°58' W 013°32'0 0.0
2017-Oct-22 17:59N 28°58' W 013°32'0 0.0
2017-Oct-22 17:22N 28°58' W 013°32'0 0.0
2017-Oct-22 16:58N 28°58' W 013°32'0 0.0
2017-Oct-22 16:22N 28°58' W 013°32'0 0.0
2017-Oct-22 10:58N 28°58' W 013°32'0 0.0
2017-Oct-22 10:28N 28°58' W 013°32'0 0.0
2017-Oct-22 09:52N 28°58' W 013°32'0 0.0
2017-Oct-22 09:28N 28°58' W 013°32'0 0.0
2017-Oct-22 08:52N 28°58' W 013°32'0 0.0
2017-Oct-22 08:22N 28°58' W 013°32'0 0.0
2017-Oct-22 06:52N 28°58' W 013°32'0 0.0
2017-Oct-22 06:28N 28°58' W 013°32'0 0.0
2017-Oct-22 05:52N 28°58' W 013°32'0 0.0
2017-Oct-22 05:22N 28°58' W 013°32'0 0.0
2017-Oct-22 04:58N 28°58' W 013°32'0 0.0
2017-Oct-22 04:28N 28°58' W 013°32'0 0.0
2017-Oct-22 03:52N 28°58' W 013°32'0 0.0
2017-Oct-22 03:28N 28°58' W 013°32'0 0.0
2017-Oct-22 02:58N 28°58' W 013°32'0 0.0
2017-Oct-22 02:16N 28°58' W 013°32'0 0.0
2017-Oct-22 01:58N 28°58' W 013°32'  

Dump ship's entire track history